Terminal Aerodrome Forecast
Issued by NWS

Current Version | Previous Version | Graphics & Text | Print | Product List | Glossary Off
Versions: 1 2 3 4 5 6 7 8 9 10 11 12 13 14 15 16 17 18 19 20 21 22 23

063
FTUS41 KRLX 261011 AAB
TAFCKB
TAF AMD
KCKB 261011Z 2610/2706 00000KT P6SM FEW250
      TEMPO 2611/2613 5SM BR FEW001
     FM262000 21009KT 2SM SHRA VCTS BKN040CB
     FM262300 26009KT 5SM SHRA VCTS OVC035CB
     FM270100 28008KT 5SM BR OVC025
     FM270300 27005KT 1SM BR BKN001
     FM270400 26005KT 1 1/2SM BR BKN015=

USA.gov is the U.S. government's official web portal to all federal, state and local government web resources and services.